Weather observations for the past three days for
Metter Municipal Airport
Imperial (Metric)
Date Time (edt) Wind (mph) Vis. (mi.) Weather Sky Cond. Temperature (ºF) Relative Humidity Wind Chill (°F) Heat Index (°F) Pressure Precipitation (in)
Air Dwpt 6 hour altimeter (in) sea level (mb) 1 hr 3 hr 6 hr
Max. Min.
09 09:35 Calm 10.00 Mostly Cloudy BKN100 67.8 66.4 95% 29.95 0.0
09 09:15 SW 5 10.00 Partly Cloudy SCT003 SCT085 SCT100 66.9 65.8 96% 29.94 0.0
09 08:55 S 5 7.00 Overcast BKN003 OVC085 66.7 65.8 97% 29.95 0.0
09 08:35 Calm 7.00 Overcast BKN003 OVC085 66 65.5 98% 29.95 0.0
09 08:15 Calm 5.00 Fog/Mist BKN003 OVC085 64.9 64.8 99% 29.94 0.0
09 07:55 Calm 5.00 Fog/Mist OVC003 64.6 64.4 64.8 63 99% 29.94 0.0
09 07:35 Calm 2.00 Fog/Mist OVC003 64.4 0 0% 29.93 0.0
09 07:15 S 3 0.75 Fog/Mist OVC003 64.4 0 0% 29.93 0.0
09 06:55 Calm 1.50 Fog/Mist OVC003 64.4 0 0% 29.91 0.0
09 06:35 Calm 1.00 Fog/Mist OVC003 62.6 0 0% 29.92 0.0
09 06:15 Calm 1.50 Fog/Mist OVC003 62.6 0 0% 29.91 0.0
09 05:55 Calm 1.25 Fog/Mist OVC003 62.6 0 0% 29.91 0.0
09 05:35 Calm 1.25 Fog/Mist OVC003 62.6 62.6 100% 29.9 0.0
09 05:15 Calm 2.50 Fog/Mist OVC003 63.3 63.3 100% 29.89 0.0
09 04:55 Calm 7.00 Overcast OVC005 63.3 63.1 99% 29.89 0.0
09 04:35 Calm 7.00 Overcast OVC007 63.1 63 99% 29.9 0.0
09 04:15 Calm 7.00 Fog/Mist BKN009 63.1 63 99% 29.91 0.0
09 03:55 Calm 7.00 Mostly Cloudy BKN009 63.1 63.1 100% 29.91 0.0
09 03:35 Calm 7.00 Fog/Mist SCT120 63.1 63 99% 29.9 0.0
09 03:15 Calm 7.00 Mostly Cloudy BKN120 63.3 63.1 99% 29.93 0.0
09 02:55 Calm 10.00 Partly Cloudy SCT120 63.5 63.3 99% 29.93 0.0
09 02:35 S 5 7.00 Fog/Mist SCT021 63.5 63.3 99% 29.93 0.0
09 02:15 Calm 10.00 Fair CLR 63.7 63.3 99% 29.94 0.0
09 01:55 Calm 7.00 Partly Cloudy SCT011 63.3 63.1 69.4 63.1 99% 29.92 0.0 0.02
09 01:35 Calm 7.00 Fog/Mist OVC011 63.5 63.3 99% 29.94 0.0
09 01:15 Calm 7.00 Mostly Cloudy BKN011 63.5 63.5 100% 29.96 0.0
09 00:55 Calm 10.00 Mostly Cloudy BKN011 63.9 63.5 99% 29.97 0.0 0.01
09 00:35 Calm 7.00 Overcast OVC011 64 63.5 98% 29.97 0.0
09 00:15 N 6 10.00 Light Rain BKN011 BKN040 OVC120 64.8 63.1 95% 29.98 0.0
08 23:55 Calm 10.00 Mostly Cloudy SCT013 SCT040 BKN120 65.1 62.4 91% 29.98 0.0
08 23:35 Calm 10.00 Mostly Cloudy SCT013 SCT026 BKN120 65.1 62.6 92% 30 0.0
08 23:15 SE 3 10.00 Partly Cloudy SCT020 SCT026 SCT120 64.9 62.6 92% 29.98 0.0
08 22:55 Calm 10.00 Fair CLR 65.1 62.4 91% 29.99 0.0 0.01 0.01
08 22:35 SE 7 10.00 Fair CLR 65.3 63 92% 29.95 0.0 0.01
08 22:15 Calm 10.00 Partly Cloudy SCT030 SCT035 65.5 63 92% 29.98 0.0 0.01
08 21:55 SE 3 10.00 Light Rain BKN032 BKN050 BKN110 65.7 63.3 92% 30 0.0
08 21:35 Calm 10.00 Light Rain BKN034 BKN050 BKN110 65.8 63.7 93% 29.99 0.0
08 21:15 SE 6 10.00 Light Rain SCT034 SCT075 BKN110 66.7 63.3 89% 29.99 0.0
08 20:35 Calm 10.00 Partly Cloudy SCT120 67.6 61.9 82% 29.98 0.0
08 20:15 Calm 10.00 Mostly Cloudy BKN120 68.4 60.3 75% 29.97 0.0
08 19:55 Calm 10.00 Partly Cloudy SCT120 69.6 59.2 75.7 69.3 70% 29.96 0.0
08 19:35 Calm 10.00 Fair CLR 69.3 60.3 73% 29.96 0.0
08 19:15 Calm 10.00 Partly Cloudy SCT120 69.8 59.4 70% 29.95 0.0
08 18:55 Calm 10.00 Mostly Cloudy BKN120 70.7 59.9 69% 29.95 0.0
08 18:15 Calm 10.00 Partly Cloudy SCT120 72 58.8 63% 29.94 0.0
08 17:55 Calm 10.00 Fair CLR 72.3 59.4 64% 29.94 0.0
08 17:35 Calm 10.00 Fair CLR 73 58.5 60% 29.94 0.0
08 17:15 Calm 10.00 Fair CLR 73.4 58.8 60% 29.95 0.0
08 16:55 Calm 10.00 Fair CLR 74.1 55.6 52% 29.94 0.0
08 16:35 S 5 10.00 Fair CLR 74.5 55.2 51% 29.95 0.0
08 16:15 SE 3 10.00 Fair CLR 75.2 54.3 48% 78 29.96 0.0
08 15:55 SE 3 10.00 Fair CLR 75 53.4 47% 78 29.97 0.0
08 15:35 SE 3 10.00 Fair CLR 74.3 54.1 50% 29.98 0.0
08 15:15 E 6 10.00 Fair CLR 74.3 53.1 48% 29.99 0.0
08 14:55 E 8 10.00 Fair CLR 75 53.1 46% 78 29.98 0.0
08 14:35 E 8 10.00 Fair CLR 74.3 53.4 48% 30 0.0
08 14:15 E 7 10.00 Fair CLR 73.9 52.9 48% 30 0.0
08 13:55 E 7 10.00 Fair CLR 73.8 52.3 74.3 62.6 47% 30 0.0
08 13:35 E 7 10.00 Fair CLR 73 52.3 48% 30.01 0.0
08 13:15 SE 6 10.00 Fair CLR 73.8 51.8 46% 30.02 0.0
08 12:55 E 7 10.00 Fair CLR 72.1 51.8 49% 30.03 0.0
08 12:35 E 8 10.00 Fair CLR 72.3 52.3 50% 30.03 0.0
08 12:15 S 3 10.00 Fair CLR 71.2 52.5 52% 30.04 0.0
08 11:55 E 7 10.00 Fair CLR 71.2 52 51% 30.04 0.0
08 11:35 E 12 10.00 Fair CLR 70 52.2 53% 30.05 0.0
08 11:15 E 14 10.00 Fair CLR 69.4 52 54% 30.05 0.0
08 10:55 E 8 10.00 Fair CLR 68 52.5 58% 30.05 0.0
08 10:35 E 8 10.00 Fair CLR 67.8 52.3 58% 30.05 0.0
08 10:15 NE 8 10.00 Fair CLR 66.9 52.3 60% 30.05 0.0
08 09:55 E 10 10.00 Fair CLR 66.7 52.9 61% 30.05 0.0
08 09:15 E 8 10.00 Fair CLR 64.6 55.4 72% 30.04 0.0
08 08:35 E 8 10.00 Fair CLR 63.5 56.7 79% 30.03 0.0
08 08:15 NE 7 10.00 Fair CLR 63 56.3 79% 30.02 0.0
08 07:55 NE 5 10.00 Fair CLR 62.6 56.1 66.2 60.4 79% 30.01 0.0
08 07:35 N 3 10.00 Fair CLR 61.9 55.9 81% 30 0.0
08 07:15 N 5 10.00 Fair CLR 61.9 56.1 82% 29.99 0.0
08 06:55 N 3 10.00 Fair CLR 61.7 56.5 83% 29.98 0.0
08 06:35 Calm 10.00 Fair CLR 60.4 57.9 91% 29.97 0.0
08 06:15 NW 3 10.00 Fair CLR 61.7 56.8 84% 29.97 0.0
08 05:55 NW 5 10.00 Fair CLR 61.5 56.8 85% 29.96 0.0
08 05:35 N 6 10.00 Fair CLR 62.2 57.2 84% 29.95 0.0
08 05:15 NW 3 10.00 Fair CLR 62.1 58.3 88% 29.95 0.0
08 04:55 NW 3 10.00 Fair CLR 64.2 56.3 76% 29.94 0.0
08 04:35 N 3 10.00 Fair CLR 64.6 56.3 75% 29.94 0.0
08 04:15 N 5 10.00 Fair CLR 64.9 56.7 75% 29.94 0.0
08 03:55 N 5 10.00 Fair CLR 64.9 57.7 78% 29.94 0.0
08 03:35 NW 5 10.00 Fair CLR 64.9 58.3 79% 29.94 0.0
08 03:15 N 6 10.00 Fair CLR 64.9 58.8 81% 29.94 0.0
08 02:55 NW 5 10.00 Partly Cloudy SCT038 65.3 58.6 79% 29.95 0.0
08 02:35 NW 7 10.00 Overcast OVC038 66 58.8 78% 29.95 0.0
08 02:15 NW 6 10.00 Overcast OVC038 66 60.1 81% 29.95 0.0
08 01:55 NW 6 10.00 Mostly Cloudy BKN036 66.2 61.2 72.7 66.2 84% 29.95 0.0
08 01:35 NW 6 10.00 Partly Cloudy SCT036 66.6 61 82% 29.95 0.0
08 01:15 NW 7 10.00 Fair CLR 67.3 61.2 81% 29.95 0.0
08 00:55 NW 9 10.00 Fair CLR 68.2 63 84% 29.95 0.0
08 00:35 NW 5 10.00 Partly Cloudy SCT014 SCT029 68.7 64.2 86% 29.94 0.0
08 00:15 NW 9 10.00 Mostly Cloudy SCT014 BKN029 70 67.1 91% 29.94 0.0
07 23:55 NW 9 10.00 Mostly Cloudy SCT008 SCT014 BKN029 70.3 69.1 96% 29.93 0.0
07 23:35 W 5 5.00 Mostly Cloudy with Haze SCT019 SCT025 BKN044 69.8 0 0% 29.92 0.0
07 22:55 Calm 10.00 Mostly Cloudy BKN038 BKN047 69.8 0 0% 29.91 0.0
07 22:35 Calm 10.00 Mostly Cloudy SCT025 SCT036 BKN047 71.6 0 0% 29.9 0.0
07 22:15 W 3 10.00 Mostly Cloudy SCT027 BKN036 71.6 71.6 100% 29.9 0.0
07 21:35 Calm 7.00 Fair CLR 71.1 71.1 100% 29.89 0.0
07 21:15 Calm 10.00 Fair CLR 71.6 71.4 99% 29.88 0.0
07 20:55 Calm 10.00 Fair CLR 71.6 71.6 100% 29.88 0.0
07 20:35 SW 3 5.00 Fog/Mist CLR 71.8 71.8 100% 29.87 0.0
07 20:15 Calm 10.00 Fair CLR 72.3 72.1 99% 29.86 0.0
07 19:55 W 3 10.00 Partly Cloudy SCT033 72.9 72.1 82.8 72.9 98% 29.87 0.0 0.1
07 19:35 W 6 10.00 Mostly Cloudy SCT030 BKN037 BKN048 73.6 72.7 97% 29.86 0.0
07 19:15 W 6 10.00 Mostly Cloudy SCT024 BKN032 BKN040 73.9 72.7 96% 29.86 0.0
07 18:55 W 6 10.00 Mostly Cloudy SCT034 BKN043 BKN070 74.3 73.2 96% 29.86 0.0 0.1
07 18:35 W 6 7.00 Light Rain SCT018 BKN025 OVC038 74.3 73 96% 29.85 0.0 0.1
07 18:15 NW 14 10.00 Light Rain SCT018 BKN025 OVC040 76.5 72 86% 77 29.85 0.0
07 17:55 W 7 G 20 10.00 Overcast BKN027 BKN042 OVC060 80.2 71.1 74% 84 29.84 0.0
07 17:35 W 9 G 21 10.00 Overcast BKN029 BKN035 OVC060 81.5 70.5 69% 85 29.83 0.0
07 17:15 SW 13 G 23 10.00 Overcast BKN027 BKN034 OVC043 79.7 70.2 73% 83 29.84 0.0
07 16:55 W 7 G 16 10.00 Overcast SCT029 BKN034 OVC040 80.2 70 71% 83 29.83 0.0
07 16:35 W 10 G 17 10.00 Overcast BKN029 OVC038 80.8 70.2 70% 84 29.83 0.0
07 16:15 W 10 G 23 10.00 Mostly Cloudy BKN029 BKN036 81.1 70 69% 85 29.83 0.0
07 15:35 SW 16 G 30 10.00 Overcast OVC027 80.4 69.3 69% 83 29.84 0.0
07 15:15 SW 9 G 20 10.00 Overcast OVC027 78.6 69.8 74% 81 29.85 0.0
07 14:55 SW 9 G 18 10.00 Overcast OVC027 76.6 68.7 77% 78 29.85 0.0
07 14:35 SW 8 G 25 10.00 Overcast OVC031 77.7 68.2 73% 80 29.87 0.0
07 14:15 SW 7 G 21 10.00 Mostly Cloudy BKN031 79 68.4 70% 81 29.86 0.0
07 13:55 SW 10 G 23 10.00 Mostly Cloudy SCT031 BKN046 78.8 68.4 79.2 66.6 70% 81 29.85 0.0 0.02
07 13:15 SW 10 G 24 10.00 Overcast OVC031 76.5 67.3 73% 78 29.87 0.0
07 12:55 SW 13 G 25 10.00 Mostly Cloudy SCT027 BKN033 BKN039 77.9 68.5 73% 80 29.86 0.0
07 12:35 SW 14 G 20 10.00 Partly Cloudy SCT023 SCT070 76.8 69.1 77% 78 29.87 0.0
07 11:55 SW 5 10.00 Partly Cloudy SCT028 74.3 69.4 85% 29.89 0.0
07 11:35 Calm 10.00 Partly Cloudy SCT028 73 69.4 89% 29.9 0.0
07 11:15 SW 5 10.00 Partly Cloudy BKN032 SCT040 71.6 68.9 91% 29.9 0.0
07 10:55 SW 8 10.00 Mostly Cloudy SCT033 BKN044 70.5 67.6 91% 29.93 0.0 0.02
07 10:35 SW 5 10.00 Mostly Cloudy SCT033 SCT042 BKN050 69.8 68 94% 29.9 0.0
07 10:15 SW 5 10.00 Fair CLR 70 68.4 95% 29.89 0.0
07 09:55 SW 3 10.00 Fair CLR 69.6 68.5 96% 29.89 0.0
07 09:35 S 3 10.00 Fair CLR 68.7 67.6 96% 29.88 0.0
07 09:15 S 5 7.00 Fog/Mist SCT050 68.2 68 99% 29.89 0.0
07 08:55 S 9 3.00 Fog/Mist SCT050 SCT065 SCT075 67.8 67.6 99% 29.9 0.0 0.02
07 08:35 Calm 5.00 Light Rain Fog/Mist SCT065 SCT090 SCT110 67.3 67.1 99% 29.9 0.0 0.02
07 08:15 SW 3 2.50 Fog/Mist SCT050 SCT085 BKN110 66.7 66.6 99% 29.92 0.0 0.02
07 07:55 NW 3 4.00 Thunderstorm Rain Fog/Mist SCT070 BKN090 BKN110 66.4 66 73.4 65.3 99% 29.9 0.0 0.01 0.34
07 07:35 Calm 10.00 Partly Cloudy SCT120 66 65.7 99% 29.88 0.0 0.01
07 06:55 S 10 5.00 Light Rain Fog/Mist SCT075 BKN100 65.7 65.5 99% 29.87 0.0 0.16
07 06:35 S 10 2.00 Rain Fog/Mist SCT065 BKN075 OVC100 66.2 66 99% 29.92 0.0 0.14
07 06:15 W 6 3.00 Thunderstorm Rain in Vicinity Fog/Mist OVC090 66.9 66.7 99% 29.95 0.0 0.06
07 05:55 S 5 3.00 Rain Fog/Mist BKN100 OVC120 67.8 67.8 100% 29.95 0.0 0.11
07 05:35 Calm 7.00 Light Rain SCT070 BKN100 BKN120 67.8 67.5 99% 29.95 0.0 0.07
07 05:15 Calm 3.50 Rain Fog/Mist SCT035 BKN070 OVC110 68.2 67.5 98% 29.95 0.0 0.04
07 04:55 W 10 G 23 4.00 Rain Fog/Mist SCT035 BKN070 OVC100 69.1 67.3 94% 30.03 0.0 0.05 0.05
07 04:35 NW 16 G 23 10.00 Light Rain BKN100 BKN120 71.4 66.4 84% 29.98 0.0
07 04:15 W 6 10.00 Thunderstorm Light Rain in Vicinity SCT100 SCT120 72.7 64.8 76% 29.94 0.0
07 03:55 NW 5 10.00 Fair CLR 73 63.3 72% 29.92 0.0
07 03:35 Calm 10.00 Fair CLR 72.5 63.9 74% 29.9 0.0
07 03:15 Calm 10.00 Fair CLR 72 63.9 76% 29.9 0.0
07 02:55 Calm 10.00 Fair CLR 72.1 64 76% 29.89 0.0
07 02:35 Calm 10.00 Fair CLR 72.1 64 76% 29.91 0.0
07 02:15 Calm 10.00 Fair CLR 72.3 64.2 76% 29.91 0.0
07 01:55 Calm 10.00 Fair CLR 73 63.9 82 73 73% 29.92 0.0
07 01:35 Calm 10.00 Fair CLR 73.9 63.5 70% 29.93 0.0
07 01:15 Calm 10.00 Fair CLR 75.6 63.5 66% 77 29.93 0.0
07 00:55 Calm 10.00 Fair CLR 76.3 63 64% 78 29.94 0.0
07 00:35 Calm 10.00 Fair CLR 76.1 62.8 63% 78 29.93 0.0
07 00:15 Calm 10.00 Fair CLR 76.6 62.6 62% 78 29.94 0.0
06 23:55 Calm 10.00 Fair CLR 76.3 63.3 64% 78 29.94 0.0
06 23:35 Calm 10.00 Fair CLR 77.4 62.8 61% 79 29.93 0.0
06 23:15 Calm 10.00 Fair CLR 77.2 63 62% 79 29.92 0.0
06 22:55 Calm 10.00 Fair CLR 78.4 62.4 58% 80 29.93 0.0
06 22:35 SW 3 10.00 Fair CLR 78.8 62.4 57% 80 29.92 0.0
06 22:15 S 3 10.00 Fair CLR 79.3 62.2 56% 81 29.91 0.0
06 21:55 S 5 10.00 Fair CLR 78.4 62.8 59% 80 29.9 0.0
06 21:35 SW 5 10.00 Fair CLR 79.2 62.2 56% 81 29.91 0.0
06 21:15 S 3 10.00 Fair CLR 79 62.2 57% 80 29.91 0.0
06 20:55 S 3 10.00 Fair CLR 79.2 62.4 57% 81 29.91 0.0
06 20:35 S 5 10.00 Fair CLR 79.7 62.2 55% 81 29.92 0.0
06 20:15 Calm 10.00 Fair CLR 80.6 61.7 53% 82 29.92 0.0
06 19:55 SW 3 10.00 Fair CLR 82.2 61 92.3 82.2 49% 83 29.92 0.0
06 19:35 Calm 10.00 Fair CLR 82.9 61.2 48% 83 29.92 0.0
06 19:15 Calm 10.00 Fair CLR 84.2 61.9 47% 85 29.93 0.0
06 18:55 SW 5 10.00 Fair CLR 85.3 61.3 45% 86 29.91 0.0
06 18:35 SW 6 10.00 Partly Cloudy SCT075 SCT085 86.2 61.2 43% 86 29.92 0.0
06 18:15 SW 6 10.00 Mostly Cloudy BKN070 BKN085 87.8 60.1 39% 87 29.93 0.0
06 17:55 SW 6 10.00 Mostly Cloudy BKN070 BKN085 87.1 60.4 41% 87 29.93 0.0
06 17:35 W 5 10.00 Partly Cloudy SCT070 SCT085 89.8 60.3 37% 89 29.93 0.0
06 17:15 SW 5 10.00 Fair CLR 90 59.5 36% 89 29.92 0.0
06 16:55 W 5 10.00 Partly Cloudy SCT080 90.3 59.2 35% 90 29.93 0.0
06 16:35 W 5 10.00 Partly Cloudy SCT090 89.8 58.3 35% 89 29.94 0.0
06 16:15 SW 9 10.00 Partly Cloudy SCT090 90.5 59 35% 90 29.94 0.0
06 15:55 SW 8 10.00 Fair CLR 91.4 60.1 35% 91 29.94 0.0
06 15:35 SW 6 10.00 Fair CLR 90.7 59.4 35% 90 29.96 0.0
06 15:15 SW 9 G 20 10.00 Fair CLR 89.8 59.7 36% 89 29.96 0.0
06 14:55 SW 5 10.00 Fair CLR 90.3 59.5 36% 90 29.97 0.0
06 14:35 S 7 10.00 Fair CLR 89.2 58.5 35% 88 29.97 0.0
06 14:15 SW 7 10.00 Fair CLR 89.1 58.1 35% 88 29.98 0.0
06 13:55 W 6 G 17 10.00 Fair CLR 89.2 59.2 90 62.2 36% 89 29.99 0.0
06 13:35 SW 7 10.00 Fair CLR 87.6 58.8 38% 87 30 0.0
06 13:15 SW 7 10.00 Fair CLR 86.9 59.5 40% 86 30.01 0.0
06 12:55 SW 8 10.00 Fair CLR 86 59.7 41% 86 30.02 0.0
06 12:35 SW 3 7.00 Fair CLR 85.8 60.1 42% 86 30.02 0.0
06 12:15 SW 6 G 17 10.00 Fair CLR 84.2 60.3 44% 84 30.03 0.0
06 11:55 SW 7 10.00 Fair CLR 82.9 60.8 47% 83 30.03 0.0
06 11:35 S 3 10.00 Fair CLR 81.1 60.3 49% 82 30.03 0.0
06 11:15 W 5 10.00 Fair CLR 81.1 60.3 49% 82 30.03 0.0
06 10:55 SW 7 10.00 Fair CLR 81 61 51% 82 30.03 0.0
06 10:35 SW 6 10.00 Partly Cloudy SCT075 79.3 61 54% 81 30.03 0.0
06 10:15 SW 3 10.00 Overcast OVC075 78.6 60.8 54% 80 30.03 0.0
Date Time (edt) Wind (mph) Vis. (mi.) Weather Sky Cond. Air Dwpt Max. Min. Relative Humidity Wind Chill (°F) Heat Index (°F) altimeter (in) sea level (mb) 1 hr 3 hr 6 hr
6 hour
Temperature (ºF) Pressure Precipitation (in)